createdAt,value
2023-02-19T00:00:01.250Z,42.20
2023-02-19T00:00:32.866Z,38.58
2023-02-19T00:01:24.656Z,41.47
2023-02-19T00:01:56.177Z,44.20
2023-02-19T00:02:27.727Z,39.22
2023-02-19T00:02:59.329Z,44.30
2023-02-19T00:03:30.872Z,46.58
2023-02-19T00:04:05.508Z,37.05
2023-02-19T00:04:37.080Z,47.85
2023-02-19T00:05:08.820Z,45.45
2023-02-19T00:05:40.455Z,44.53
2023-02-19T00:06:11.965Z,43.13
2023-02-19T00:06:44.826Z,44.08
2023-02-19T00:07:16.476Z,39.60
2023-02-19T00:07:47.993Z,44.67
2023-02-19T00:08:19.548Z,40.92
2023-02-19T00:08:51.081Z,40.05
2023-02-19T00:09:22.627Z,42.95
2023-02-19T00:09:54.189Z,45.40
2023-02-19T00:10:25.817Z,48.25
2023-02-19T00:11:08.187Z,41.17
2023-02-19T00:11:40.517Z,41.05
2023-02-19T00:12:12.046Z,41.65
2023-02-19T00:12:44.244Z,44.58
2023-02-19T00:13:15.755Z,36.72
2023-02-19T00:13:49.687Z,38.53
2023-02-19T00:14:21.953Z,34.65
2023-02-19T00:14:55.114Z,43.55
2023-02-19T00:15:26.758Z,37.25
2023-02-19T00:15:58.439Z,37.25
2023-02-19T00:16:38.241Z,43.38
2023-02-19T00:17:09.780Z,40.83
2023-02-19T00:17:41.297Z,39.75
2023-02-19T00:18:13.015Z,38.38
2023-02-19T00:18:45.495Z,42.20
2023-02-19T00:19:19.029Z,40.35
2023-02-19T00:19:50.573Z,38.72
2023-02-19T00:20:22.141Z,39.15
2023-02-19T00:20:56.370Z,36.25
2023-02-19T00:21:28.112Z,42.45
2023-02-19T00:21:59.705Z,34.78
2023-02-19T00:22:31.311Z,35.10
2023-02-19T00:23:02.919Z,36.83
2023-02-19T00:23:34.805Z,37.97
2023-02-19T00:24:07.501Z,42.63
2023-02-19T00:24:39.204Z,31.73
2023-02-19T00:25:10.763Z,43.35
2023-02-19T00:25:42.350Z,33.15
2023-02-19T00:26:18.626Z,45.38
2023-02-19T00:26:52.036Z,36.17
2023-02-19T00:27:23.804Z,41.55
2023-02-19T00:27:55.383Z,41.88
2023-02-19T00:28:28.050Z,32.58
2023-02-19T00:29:00.857Z,49.20
2023-02-19T00:29:32.450Z,40.08
2023-02-19T00:30:04.169Z,37.88
2023-02-19T00:30:35.748Z,36.45
2023-02-19T00:31:23.583Z,37.72
2023-02-19T00:31:55.315Z,40.55
2023-02-19T00:32:26.957Z,35.92
2023-02-19T00:32:58.619Z,36.17
2023-02-19T00:33:30.167Z,41.85
2023-02-19T00:34:05.417Z,37.03
2023-02-19T00:34:37.092Z,44.60
2023-02-19T00:35:08.760Z,35.28
2023-02-19T00:35:40.282Z,36.53
2023-02-19T00:36:12.995Z,40.80
2023-02-19T00:36:44.659Z,38.97
2023-02-19T00:37:16.258Z,35.38
2023-02-19T00:37:48.622Z,37.00
2023-02-19T00:38:20.148Z,47.17
2023-02-19T00:38:52.114Z,46.83
2023-02-19T00:39:23.674Z,41.55
2023-02-19T00:39:55.323Z,37.47
2023-02-19T00:40:26.938Z,39.17
2023-02-19T00:41:01.789Z,39.88
2023-02-19T00:41:33.508Z,37.80
2023-02-19T00:42:05.048Z,30.92
2023-02-19T00:42:36.631Z,33.50
2023-02-19T00:43:08.149Z,38.85
2023-02-19T00:43:39.683Z,37.03
2023-02-19T00:44:11.964Z,35.50
2023-02-19T00:44:43.486Z,46.35
2023-02-19T00:45:16.978Z,40.35
2023-02-19T00:45:48.496Z,44.83
2023-02-19T00:46:25.690Z,43.78
2023-02-19T00:46:58.432Z,43.70
2023-02-19T00:47:29.971Z,41.65
2023-02-19T00:48:01.547Z,33.50
2023-02-19T00:48:33.076Z,37.92
2023-02-19T00:49:06.155Z,38.15
2023-02-19T00:49:37.672Z,44.72
2023-02-19T00:50:09.454Z,40.70
2023-02-19T00:50:40.995Z,40.78
2023-02-19T00:51:12.701Z,40.78
2023-02-19T00:51:44.588Z,38.15
2023-02-19T00:52:16.150Z,46.08
2023-02-19T00:52:47.669Z,43.30
2023-02-19T00:53:19.439Z,38.47
2023-02-19T00:53:51.319Z,39.33
2023-02-19T00:54:23.964Z,44.17
2023-02-19T00:54:55.585Z,39.75
2023-02-19T00:55:27.103Z,47.60
2023-02-19T00:55:58.671Z,40.72
2023-02-19T00:56:30.328Z,40.38
2023-02-19T00:57:02.106Z,44.90
2023-02-19T00:57:33.728Z,48.67
2023-02-19T00:58:05.372Z,38.00
2023-02-19T00:58:37.300Z,46.88
2023-02-19T00:59:09.513Z,34.40
2023-02-19T00:59:41.031Z,38.40
2023-02-19T01:00:13.151Z,36.65
2023-02-19T01:00:44.653Z,47.45
2023-02-19T01:01:18.137Z,40.25
2023-02-19T01:01:49.935Z,43.92
2023-02-19T01:02:22.250Z,51.58
2023-02-19T01:02:54.816Z,46.85
2023-02-19T01:03:29.978Z,40.40
2023-02-19T01:04:01.605Z,39.55
2023-02-19T01:04:33.216Z,39.78
2023-02-19T01:05:05.507Z,40.28
2023-02-19T01:05:37.068Z,38.13
2023-02-19T01:06:10.022Z,42.25
2023-02-19T01:06:41.846Z,41.63
2023-02-19T01:07:13.542Z,34.63
2023-02-19T01:07:45.204Z,43.80
2023-02-19T01:08:17.388Z,39.22
2023-02-19T01:08:49.676Z,39.35
2023-02-19T01:09:21.284Z,38.47
2023-02-19T01:09:52.777Z,38.38
2023-02-19T01:10:24.316Z,39.90
2023-02-19T01:10:55.845Z,35.22
2023-02-19T01:11:27.755Z,42.67
2023-02-19T01:11:59.357Z,34.00
2023-02-19T01:12:31.364Z,42.60
2023-02-19T01:13:02.898Z,33.28
2023-02-19T01:13:35.138Z,38.78
2023-02-19T01:14:06.742Z,33.45
2023-02-19T01:14:38.971Z,39.40
2023-02-19T01:15:10.593Z,40.58
2023-02-19T01:15:42.461Z,39.03
2023-02-19T01:16:21.941Z,35.30
2023-02-19T01:16:53.525Z,39.75
2023-02-19T01:17:25.068Z,40.25
2023-02-19T01:17:56.918Z,39.03
2023-02-19T01:18:28.551Z,38.08
2023-02-19T01:19:00.501Z,39.60
2023-02-19T01:19:32.959Z,38.65
2023-02-19T01:20:04.900Z,42.55
2023-02-19T01:20:39.576Z,40.90
2023-02-19T01:21:16.315Z,34.00
2023-02-19T01:21:48.078Z,32.65
2023-02-19T01:22:19.664Z,42.05
2023-02-19T01:22:51.205Z,32.42
2023-02-19T01:23:23.242Z,35.08
2023-02-19T01:23:55.874Z,34.60
2023-02-19T01:24:29.490Z,32.75
2023-02-19T01:25:01.133Z,28.98
2023-02-19T01:25:32.671Z,32.58
2023-02-19T01:26:09.152Z,37.33
2023-02-19T01:26:40.792Z,35.38
2023-02-19T01:27:12.454Z,31.65
2023-02-19T01:27:44.123Z,44.95
2023-02-19T01:28:15.646Z,33.25
2023-02-19T01:28:48.411Z,32.50
2023-02-19T01:29:20.018Z,34.13
2023-02-19T01:29:51.665Z,33.28
2023-02-19T01:30:23.229Z,39.72
2023-02-19T01:31:00.795Z,34.63
2023-02-19T01:31:32.911Z,30.23
2023-02-19T01:32:06.494Z,37.75
2023-02-19T01:32:38.384Z,37.67
2023-02-19T01:33:10.252Z,34.45
2023-02-19T01:33:52.734Z,34.35
2023-02-19T01:34:24.410Z,27.48
2023-02-19T01:34:55.907Z,33.85
2023-02-19T01:35:27.440Z,29.35
2023-02-19T01:35:59.103Z,30.60
2023-02-19T01:36:33.386Z,34.60
2023-02-19T01:37:05.792Z,34.17
2023-02-19T01:37:37.466Z,30.92
2023-02-19T01:38:09.144Z,28.00
2023-02-19T01:38:40.976Z,33.20
2023-02-19T01:39:12.654Z,28.10
2023-02-19T01:39:44.249Z,23.73
2023-02-19T01:40:15.831Z,21.85
2023-02-19T01:40:56.841Z,26.20
2023-02-19T01:42:00.617Z,27.75
2023-02-19T01:42:32.314Z,25.67
2023-02-19T01:43:04.139Z,29.35
2023-02-19T01:44:02.350Z,33.03
2023-02-19T01:44:33.899Z,22.83
2023-02-19T01:45:27.554Z,18.85
2023-02-19T01:45:59.583Z,26.48
2023-02-19T01:46:39.662Z,26.70
2023-02-19T01:47:12.150Z,27.33
2023-02-19T01:47:43.802Z,22.85
2023-02-19T01:48:25.338Z,26.50
2023-02-19T01:48:59.592Z,19.77
2023-02-19T01:49:37.834Z,20.58
2023-02-19T01:50:09.559Z,21.27
2023-02-19T01:50:59.868Z,14.48
2023-02-19T01:51:32.962Z,23.83
2023-02-19T01:52:11.582Z,21.75
2023-02-19T01:52:43.288Z,27.75
2023-02-19T01:53:17.164Z,20.65
2023-02-19T01:53:53.628Z,17.58
2023-02-19T01:54:27.694Z,21.98
2023-02-19T01:55:01.230Z,20.52
2023-02-19T01:55:33.970Z,26.48
2023-02-19T01:56:07.126Z,20.85
2023-02-19T01:56:41.145Z,18.75
2023-02-19T01:57:17.335Z,20.48
2023-02-19T01:57:53.095Z,19.85
2023-02-19T01:58:26.591Z,24.63
2023-02-19T01:58:59.141Z,26.00
2023-02-19T01:59:32.347Z,20.33
2023-02-19T02:00:09.571Z,16.02
2023-02-19T02:00:47.648Z,25.08
2023-02-19T02:01:19.422Z,25.63
2023-02-19T02:01:51.405Z,20.98
2023-02-19T02:02:25.103Z,23.27
2023-02-19T02:02:58.056Z,18.35
2023-02-19T02:03:29.864Z,16.35
2023-02-19T02:04:01.515Z,22.10
2023-02-19T02:04:33.638Z,13.77
2023-02-19T02:05:14.369Z,19.55
2023-02-19T02:06:05.806Z,17.83
2023-02-19T02:06:48.471Z,18.95
2023-02-19T02:07:38.497Z,18.15
2023-02-19T02:08:29.367Z,15.10
2023-02-19T02:09:19.240Z,17.27
2023-02-19T02:10:20.613Z,11.00
2023-02-19T02:10:52.913Z,13.95
2023-02-19T02:11:25.199Z,17.67
2023-02-19T02:11:56.809Z,16.63
2023-02-19T02:12:29.459Z,17.85
2023-02-19T02:13:01.091Z,15.20
2023-02-19T02:13:34.611Z,19.90
2023-02-19T02:14:06.308Z,14.70
2023-02-19T02:14:39.493Z,17.95
2023-02-19T02:15:13.211Z,20.30
2023-02-19T02:15:55.674Z,13.95
2023-02-19T02:16:39.895Z,16.80
2023-02-19T02:17:28.892Z,20.17
2023-02-19T02:18:23.304Z,12.85
2023-02-19T02:19:06.758Z,17.88
2023-02-19T02:19:47.106Z,15.32
2023-02-19T02:20:50.991Z,20.13
2023-02-19T02:21:41.804Z,22.00
2023-02-19T02:22:19.634Z,17.02
2023-02-19T02:23:00.728Z,14.20
2023-02-19T02:23:41.849Z,15.05
2023-02-19T02:24:35.277Z,16.33
2023-02-19T02:25:24.575Z,13.10
2023-02-19T02:26:10.978Z,15.68
2023-02-19T02:26:59.688Z,12.57
2023-02-19T02:28:01.191Z,19.15
2023-02-19T02:29:19.780Z,18.00
2023-02-19T02:30:24.102Z,14.25
2023-02-19T02:31:34.802Z,16.83
2023-02-19T02:32:11.913Z,18.92
2023-02-19T02:32:53.359Z,18.55
2023-02-19T02:33:30.991Z,13.57
2023-02-19T02:34:07.809Z,18.55
2023-02-19T02:34:58.981Z,16.98
2023-02-19T02:35:39.756Z,16.02
2023-02-19T02:36:29.460Z,21.95
2023-02-19T02:37:01.726Z,23.08
2023-02-19T02:37:35.899Z,17.15
2023-02-19T02:38:10.269Z,17.63
2023-02-19T02:38:43.249Z,20.73
2023-02-19T02:39:17.760Z,20.60
2023-02-19T02:39:51.150Z,15.50
2023-02-19T02:40:23.029Z,18.67
2023-02-19T02:40:55.118Z,19.27
2023-02-19T02:41:27.050Z,13.00
2023-02-19T02:42:18.823Z,14.50
2023-02-19T02:43:00.407Z,17.63
2023-02-19T02:43:32.455Z,18.42
2023-02-19T02:44:04.239Z,14.57
2023-02-19T02:44:36.974Z,21.42
2023-02-19T02:45:36.586Z,15.98
2023-02-19T02:46:34.168Z,15.10
2023-02-19T02:47:07.068Z,18.50
2023-02-19T02:47:45.385Z,16.88
2023-02-19T02:48:23.333Z,14.40
2023-02-19T02:48:59.168Z,17.70
2023-02-19T02:49:30.882Z,17.33
2023-02-19T02:50:05.632Z,16.38
2023-02-19T02:50:42.884Z,16.30
2023-02-19T02:51:22.661Z,18.73
2023-02-19T02:52:27.635Z,18.48
2023-02-19T02:53:24.598Z,23.23
2023-02-19T02:54:57.601Z,15.20
2023-02-19T02:55:31.811Z,14.93
2023-02-19T02:56:04.398Z,17.00
2023-02-19T02:56:40.316Z,18.02
2023-02-19T02:57:14.885Z,18.85
2023-02-19T02:57:52.352Z,16.95
2023-02-19T02:58:25.146Z,17.77
2023-02-19T02:59:01.659Z,20.83
2023-02-19T02:59:37.381Z,20.27
2023-02-19T03:00:09.720Z,12.57
2023-02-19T03:01:02.308Z,18.60
2023-02-19T03:02:18.837Z,14.68
2023-02-19T03:02:50.821Z,16.42
2023-02-19T03:03:24.497Z,15.90
2023-02-19T03:04:02.565Z,17.52
2023-02-19T03:05:04.967Z,14.75
2023-02-19T03:05:51.777Z,23.17
2023-02-19T03:06:24.424Z,14.13
2023-02-19T03:06:58.114Z,18.27
2023-02-19T03:07:36.270Z,15.68
2023-02-19T03:08:24.277Z,18.58
2023-02-19T03:08:55.878Z,16.15
2023-02-19T03:09:40.674Z,15.65
2023-02-19T03:10:18.632Z,17.80
2023-02-19T03:11:23.194Z,20.13
2023-02-19T03:12:15.068Z,19.55
2023-02-19T03:13:07.208Z,16.27
2023-02-19T03:13:57.626Z,21.40
2023-02-19T03:14:58.024Z,18.65
2023-02-19T03:15:55.976Z,16.77
2023-02-19T03:16:49.728Z,21.45
2023-02-19T03:18:02.069Z,19.35
2023-02-19T03:18:54.692Z,14.70
2023-02-19T03:19:27.819Z,14.32
2023-02-19T03:20:04.447Z,15.48
2023-02-19T03:20:40.716Z,19.10
2023-02-19T03:21:14.471Z,21.30
2023-02-19T03:21:53.196Z,17.80
2023-02-19T03:22:28.208Z,16.33
2023-02-19T03:23:02.124Z,20.85
2023-02-19T03:23:54.349Z,24.10
2023-02-19T03:24:50.995Z,21.95
2023-02-19T03:25:48.057Z,16.05
2023-02-19T03:26:25.103Z,17.02
2023-02-19T03:26:59.634Z,24.58
2023-02-19T03:27:34.727Z,14.32
2023-02-19T03:28:09.122Z,20.67
2023-02-19T03:29:01.473Z,19.52
2023-02-19T03:29:36.070Z,18.88
2023-02-19T03:30:16.624Z,17.80
2023-02-19T03:30:50.941Z,20.52
2023-02-19T03:31:24.821Z,17.60
2023-02-19T03:32:03.579Z,23.20
2023-02-19T03:32:45.906Z,17.17
2023-02-19T03:33:22.654Z,31.15
2023-02-19T03:33:57.301Z,20.00
2023-02-19T03:34:34.773Z,15.13
2023-02-19T03:35:10.305Z,18.95
2023-02-19T03:35:46.701Z,16.38
2023-02-19T03:36:25.714Z,16.85
2023-02-19T03:37:03.881Z,20.08
2023-02-19T03:37:42.100Z,18.13
2023-02-19T03:38:18.671Z,16.50
2023-02-19T03:38:59.740Z,16.65
2023-02-19T03:39:32.368Z,16.25
2023-02-19T03:40:05.299Z,16.65
2023-02-19T03:40:45.303Z,16.35
2023-02-19T03:41:25.630Z,20.92
2023-02-19T03:42:04.179Z,19.63
2023-02-19T03:42:46.478Z,14.18
2023-02-19T03:43:41.007Z,20.02
2023-02-19T03:44:31.386Z,17.05
2023-02-19T03:45:15.538Z,16.15
2023-02-19T03:45:53.092Z,17.08
2023-02-19T03:47:05.492Z,20.92
2023-02-19T03:47:49.958Z,18.42
2023-02-19T03:48:30.947Z,21.52
2023-02-19T03:49:11.173Z,11.63
2023-02-19T03:49:49.900Z,16.52
2023-02-19T03:50:28.961Z,18.23
2023-02-19T03:51:39.104Z,16.23
2023-02-19T03:52:39.625Z,14.18
2023-02-19T03:53:53.057Z,18.27
2023-02-19T03:54:43.512Z,17.83
2023-02-19T03:55:24.201Z,13.98
2023-02-19T03:56:19.392Z,15.40
2023-02-19T03:57:18.253Z,14.23
2023-02-19T03:57:56.431Z,18.33
2023-02-19T03:58:32.755Z,20.25
2023-02-19T03:59:16.121Z,15.63
2023-02-19T03:59:55.461Z,19.17
2023-02-19T04:00:53.997Z,17.35
2023-02-19T04:01:49.121Z,20.65
2023-02-19T04:02:41.758Z,21.92
2023-02-19T04:03:40.118Z,21.33
2023-02-19T04:04:30.736Z,23.20
2023-02-19T04:05:07.096Z,16.33
2023-02-19T04:05:44.671Z,21.25
2023-02-19T04:06:36.702Z,16.52
2023-02-19T04:07:08.480Z,16.70
2023-02-19T04:07:46.402Z,18.88
2023-02-19T04:08:20.627Z,21.45
2023-02-19T04:09:00.733Z,21.05
2023-02-19T04:09:43.988Z,19.30
2023-02-19T04:10:20.202Z,16.15
2023-02-19T04:10:55.619Z,16.40
2023-02-19T04:11:31.318Z,17.35
2023-02-19T04:12:07.796Z,17.38
2023-02-19T04:12:42.571Z,19.80
2023-02-19T04:13:21.687Z,15.15
2023-02-19T04:14:16.525Z,16.75
2023-02-19T04:15:15.132Z,23.38
2023-02-19T04:15:47.320Z,16.92
2023-02-19T04:16:23.160Z,16.55
2023-02-19T04:17:01.564Z,21.08
2023-02-19T04:17:49.342Z,18.15
2023-02-19T04:18:25.189Z,18.65
2023-02-19T04:19:00.642Z,15.15
2023-02-19T04:19:35.487Z,24.45
2023-02-19T04:20:09.714Z,19.58
2023-02-19T04:20:44.307Z,22.70
2023-02-19T04:21:16.589Z,14.45
2023-02-19T04:21:49.390Z,17.05
2023-02-19T04:22:22.061Z,16.00
2023-02-19T04:22:53.799Z,17.40
2023-02-19T04:23:26.976Z,19.63
2023-02-19T04:24:02.532Z,16.95
2023-02-19T04:24:47.285Z,19.45
2023-02-19T04:25:19.025Z,21.83
2023-02-19T04:25:55.086Z,18.75
2023-02-19T04:26:26.738Z,20.52
2023-02-19T04:26:58.589Z,18.52
2023-02-19T04:27:30.454Z,17.70
2023-02-19T04:28:02.713Z,17.40
2023-02-19T04:28:35.335Z,23.98
2023-02-19T04:29:07.000Z,21.27
2023-02-19T04:29:39.375Z,16.05
2023-02-19T04:30:16.192Z,18.95
2023-02-19T04:30:47.933Z,14.35
2023-02-19T04:31:19.752Z,13.98
2023-02-19T04:31:51.488Z,21.38
2023-02-19T04:32:23.098Z,14.77
2023-02-19T04:32:54.864Z,18.48
2023-02-19T04:33:26.631Z,19.83
2023-02-19T04:33:58.162Z,24.40
2023-02-19T04:34:29.763Z,16.85
2023-02-19T04:35:01.334Z,16.67
2023-02-19T04:35:32.946Z,15.93
2023-02-19T04:36:04.841Z,18.35
2023-02-19T04:36:36.475Z,16.77
2023-02-19T04:37:08.175Z,17.45
2023-02-19T04:37:39.777Z,18.55
2023-02-19T04:38:12.372Z,16.30
2023-02-19T04:38:43.984Z,17.45
2023-02-19T04:39:15.588Z,16.88
2023-02-19T04:39:48.054Z,13.68
2023-02-19T04:40:19.692Z,21.80
2023-02-19T04:40:51.560Z,15.77
2023-02-19T04:41:23.209Z,16.83
2023-02-19T04:41:54.764Z,24.23
2023-02-19T04:42:26.433Z,14.15
2023-02-19T04:42:58.044Z,17.40
2023-02-19T04:43:29.626Z,16.30
2023-02-19T04:44:01.211Z,14.43
2023-02-19T04:44:33.841Z,17.05
2023-02-19T04:45:05.712Z,18.08
2023-02-19T04:45:38.466Z,15.80
2023-02-19T04:46:10.094Z,17.08
2023-02-19T04:46:43.160Z,19.50
2023-02-19T04:47:17.796Z,15.32
2023-02-19T04:47:49.353Z,16.38
2023-02-19T04:48:21.052Z,21.73
2023-02-19T04:48:52.662Z,27.13
2023-02-19T04:49:24.309Z,16.17
2023-02-19T04:49:55.900Z,16.85
2023-02-19T04:50:27.511Z,17.20
2023-02-19T04:50:59.178Z,13.80
2023-02-19T04:51:30.769Z,15.27
2023-02-19T04:52:02.334Z,20.85
2023-02-19T04:52:33.992Z,18.95
2023-02-19T04:53:06.187Z,16.52
2023-02-19T04:53:37.902Z,18.80
2023-02-19T04:54:09.573Z,14.77
2023-02-19T04:54:41.148Z,16.20
2023-02-19T04:55:12.709Z,16.98
2023-02-19T04:55:45.630Z,18.58
2023-02-19T04:56:17.674Z,20.88
2023-02-19T04:56:50.754Z,17.83
2023-02-19T04:57:22.310Z,20.77
2023-02-19T04:57:53.912Z,21.60
2023-02-19T04:58:25.546Z,22.98
2023-02-19T04:58:57.358Z,18.42
2023-02-19T04:59:28.959Z,16.05
2023-02-19T05:00:00.562Z,15.23
2023-02-19T05:00:33.880Z,17.45
2023-02-19T05:01:05.657Z,19.83
2023-02-19T05:01:37.368Z,19.73
2023-02-19T05:02:09.009Z,16.95
2023-02-19T05:02:40.736Z,15.20
2023-02-19T05:03:12.304Z,20.05
2023-02-19T05:03:44.524Z,14.85
2023-02-19T05:04:16.207Z,14.50
2023-02-19T05:04:47.980Z,21.33
2023-02-19T05:05:19.558Z,15.00
2023-02-19T05:05:51.124Z,17.55
2023-02-19T05:06:22.675Z,22.50
2023-02-19T05:06:54.308Z,14.98
2023-02-19T05:07:25.919Z,21.20
2023-02-19T05:07:57.539Z,17.50
2023-02-19T05:08:29.226Z,19.40
2023-02-19T05:09:00.843Z,16.08
2023-02-19T05:09:32.453Z,16.75
2023-02-19T05:10:04.152Z,15.93
2023-02-19T05:10:35.687Z,20.60
2023-02-19T05:11:10.815Z,20.17
2023-02-19T05:11:42.669Z,17.48
2023-02-19T05:12:14.259Z,15.07
2023-02-19T05:12:46.005Z,16.92
2023-02-19T05:13:18.010Z,19.02
2023-02-19T05:13:49.584Z,16.60
2023-02-19T05:14:21.259Z,17.73
2023-02-19T05:14:52.934Z,19.25
2023-02-19T05:15:24.474Z,21.23
2023-02-19T05:16:00.725Z,18.55
2023-02-19T05:16:33.232Z,17.30
2023-02-19T05:17:05.112Z,15.07
2023-02-19T05:17:36.932Z,15.38
2023-02-19T05:18:08.498Z,19.35
2023-02-19T05:18:41.388Z,20.73
2023-02-19T05:19:13.735Z,22.40
2023-02-19T05:19:45.326Z,15.88
2023-02-19T05:20:17.183Z,16.92
2023-02-19T05:20:49.371Z,19.40
2023-02-19T05:21:21.016Z,15.98
2023-02-19T05:21:52.583Z,18.40
2023-02-19T05:22:24.202Z,17.05
2023-02-19T05:22:55.898Z,16.80
2023-02-19T05:23:27.965Z,15.35
2023-02-19T05:23:59.488Z,19.98
2023-02-19T05:24:31.592Z,17.77
2023-02-19T05:25:03.250Z,15.75
2023-02-19T05:25:34.903Z,15.90
2023-02-19T05:26:08.415Z,15.65
2023-02-19T05:26:40.070Z,18.23
2023-02-19T05:27:11.736Z,19.55
2023-02-19T05:27:43.654Z,17.90
2023-02-19T05:28:18.086Z,16.60
2023-02-19T05:28:52.028Z,14.15
2023-02-19T05:29:23.589Z,19.95
2023-02-19T05:29:55.207Z,16.40
2023-02-19T05:30:26.744Z,16.35
2023-02-19T05:30:58.414Z,15.38
2023-02-19T05:31:30.430Z,14.88
2023-02-19T05:32:02.125Z,18.20
2023-02-19T05:32:35.235Z,17.05
2023-02-19T05:33:06.781Z,15.98
2023-02-19T05:33:38.453Z,19.30
2023-02-19T05:34:10.171Z,17.02
2023-02-19T05:34:41.723Z,18.63
2023-02-19T05:35:13.311Z,17.00
2023-02-19T05:35:47.470Z,14.77
2023-02-19T05:36:20.790Z,13.75
2023-02-19T05:36:52.389Z,18.63
2023-02-19T05:37:23.938Z,15.93
2023-02-19T05:37:55.539Z,14.70
2023-02-19T05:38:27.263Z,16.92
2023-02-19T05:38:58.846Z,15.18
2023-02-19T05:39:30.390Z,19.63
2023-02-19T05:40:01.974Z,16.50
2023-02-19T05:40:34.205Z,20.05
2023-02-19T05:41:14.643Z,16.10
2023-02-19T05:41:46.196Z,13.30
2023-02-19T05:42:17.756Z,18.58
2023-02-19T05:42:49.317Z,17.48
2023-02-19T05:43:20.933Z,16.35
2023-02-19T05:43:53.210Z,16.77
2023-02-19T05:44:24.899Z,16.23
2023-02-19T05:44:56.443Z,11.25
2023-02-19T05:45:27.983Z,14.75
2023-02-19T05:45:59.602Z,12.27
2023-02-19T05:46:31.519Z,22.00
2023-02-19T05:47:03.204Z,16.38
2023-02-19T05:47:34.757Z,13.30
2023-02-19T05:48:07.578Z,16.23
2023-02-19T05:48:39.382Z,14.15
2023-02-19T05:49:10.976Z,15.85
2023-02-19T05:49:42.503Z,16.77
2023-02-19T05:50:14.130Z,20.00
2023-02-19T05:50:45.796Z,17.23
2023-02-19T05:51:22.192Z,18.65
2023-02-19T05:51:53.734Z,14.88
2023-02-19T05:52:25.406Z,14.23
2023-02-19T05:52:56.968Z,15.80
2023-02-19T05:53:28.985Z,15.48
2023-02-19T05:54:00.589Z,19.95
2023-02-19T05:54:32.432Z,16.17
2023-02-19T05:55:04.145Z,19.35
2023-02-19T05:55:36.233Z,16.88
2023-02-19T05:56:26.062Z,15.45
2023-02-19T05:56:58.330Z,13.57
2023-02-19T05:57:29.877Z,17.63
2023-02-19T05:58:01.789Z,18.23
2023-02-19T05:58:33.329Z,13.48
2023-02-19T05:59:08.261Z,10.25
2023-02-19T05:59:39.814Z,15.48
2023-02-19T06:00:13.426Z,12.23
2023-02-19T06:00:44.998Z,13.98
2023-02-19T06:01:17.792Z,14.70
2023-02-19T06:01:51.266Z,13.15
2023-02-19T06:02:22.847Z,10.85
2023-02-19T06:02:54.685Z,19.23
2023-02-19T06:03:26.381Z,15.70
2023-02-19T06:03:58.359Z,17.20
2023-02-19T06:04:29.984Z,14.98
2023-02-19T06:05:01.561Z,15.23
2023-02-19T06:05:33.106Z,10.75
2023-02-19T06:06:04.944Z,12.13
2023-02-19T06:06:37.334Z,12.88
2023-02-19T06:07:09.282Z,13.05
2023-02-19T06:07:41.812Z,11.43
2023-02-19T06:08:14.047Z,13.23
2023-02-19T06:08:45.841Z,13.73
2023-02-19T06:09:17.682Z,15.27
2023-02-19T06:09:51.192Z,12.13
2023-02-19T06:10:23.437Z,13.18
2023-02-19T06:10:55.018Z,15.95
2023-02-19T06:11:26.587Z,17.08
2023-02-19T06:11:58.205Z,13.35
2023-02-19T06:12:29.781Z,11.50
2023-02-19T06:13:01.305Z,16.02
2023-02-19T06:13:33.063Z,15.02
2023-02-19T06:14:05.509Z,15.27
2023-02-19T06:14:37.108Z,13.75
2023-02-19T06:15:08.844Z,15.65
2023-02-19T06:15:40.521Z,17.92
2023-02-19T06:16:12.310Z,16.85
2023-02-19T06:16:43.976Z,12.88
2023-02-19T06:17:15.851Z,16.75
2023-02-19T06:17:47.825Z,16.67
2023-02-19T06:18:19.365Z,16.17
2023-02-19T06:18:51.358Z,18.38
2023-02-19T06:19:22.896Z,10.80
2023-02-19T06:19:54.446Z,11.93
2023-02-19T06:20:26.395Z,16.38
2023-02-19T06:21:02.086Z,18.15
2023-02-19T06:21:34.068Z,18.23
2023-02-19T06:22:05.827Z,15.30
2023-02-19T06:22:37.540Z,20.00
2023-02-19T06:23:09.205Z,15.40
2023-02-19T06:23:41.239Z,20.70
2023-02-19T06:24:12.808Z,15.15
2023-02-19T06:24:44.425Z,17.30
2023-02-19T06:25:16.355Z,15.30
2023-02-19T06:25:47.909Z,17.13
2023-02-19T06:26:24.748Z,26.00
2023-02-19T06:26:56.422Z,16.27
2023-02-19T06:27:28.337Z,17.52
2023-02-19T06:27:59.838Z,16.70
2023-02-19T06:28:31.410Z,16.85
2023-02-19T06:29:03.056Z,22.77
2023-02-19T06:29:34.752Z,18.90
2023-02-19T06:30:06.955Z,18.70
2023-02-19T06:30:38.528Z,16.42
2023-02-19T06:31:11.365Z,18.83
2023-02-19T06:31:44.354Z,22.58
2023-02-19T06:32:16.115Z,15.07
2023-02-19T06:32:47.821Z,16.00
2023-02-19T06:33:19.425Z,19.52
2023-02-19T06:33:51.028Z,21.50
2023-02-19T06:34:22.596Z,19.63
2023-02-19T06:34:54.140Z,21.00
2023-02-19T06:35:25.708Z,18.65
2023-02-19T06:36:01.950Z,20.98
2023-02-19T06:36:33.666Z,16.02
2023-02-19T06:37:05.248Z,19.52
2023-02-19T06:37:36.806Z,18.08
2023-02-19T06:38:08.346Z,17.88
2023-02-19T06:38:40.041Z,19.92
2023-02-19T06:39:11.591Z,20.38
2023-02-19T06:39:43.876Z,18.23
2023-02-19T06:40:16.091Z,20.85
2023-02-19T06:40:47.679Z,17.85
2023-02-19T06:41:19.541Z,19.80
2023-02-19T06:41:51.098Z,29.65
2023-02-19T06:42:22.754Z,21.33
2023-02-19T06:42:54.313Z,20.73
2023-02-19T06:43:25.912Z,25.30
2023-02-19T06:43:58.402Z,16.75
2023-02-19T06:44:30.090Z,18.10
2023-02-19T06:45:01.624Z,17.38
2023-02-19T06:45:33.165Z,19.80
2023-02-19T06:46:06.571Z,19.80
2023-02-19T06:46:38.299Z,22.35
2023-02-19T06:47:09.954Z,21.55
2023-02-19T06:47:41.486Z,21.20
2023-02-19T06:48:13.321Z,24.10
2023-02-19T06:48:45.483Z,25.83
2023-02-19T06:49:17.129Z,20.88
2023-02-19T06:49:48.750Z,25.10
2023-02-19T06:50:20.298Z,18.17
2023-02-19T06:50:51.992Z,19.42
2023-02-19T06:51:26.344Z,15.70
2023-02-19T06:51:59.193Z,24.85
2023-02-19T06:52:30.740Z,19.15
2023-02-19T06:53:02.359Z,20.17
2023-02-19T06:53:33.941Z,19.30
2023-02-19T06:54:05.926Z,19.67
2023-02-19T06:54:37.531Z,19.98
2023-02-19T06:55:09.315Z,23.35
2023-02-19T06:55:41.370Z,18.67
2023-02-19T06:56:31.192Z,23.75
2023-02-19T06:57:03.315Z,19.67
2023-02-19T06:57:34.882Z,25.13
2023-02-19T06:58:07.823Z,19.25
2023-02-19T06:58:39.425Z,17.17
2023-02-19T06:59:16.859Z,19.73
2023-02-19T06:59:48.572Z,15.35
2023-02-19T07:00:20.303Z,24.35
2023-02-19T07:00:52.049Z,18.40
2023-02-19T07:01:24.212Z,17.10
2023-02-19T07:01:55.748Z,19.85
2023-02-19T07:02:27.328Z,16.30
2023-02-19T07:02:58.881Z,18.38
2023-02-19T07:03:30.484Z,17.90
2023-02-19T07:04:02.748Z,18.05
2023-02-19T07:04:34.441Z,15.63
2023-02-19T07:05:06.424Z,22.27
2023-02-19T07:05:37.956Z,17.30
2023-02-19T07:06:09.581Z,16.95
2023-02-19T07:06:41.425Z,25.65
2023-02-19T07:07:12.974Z,19.85
2023-02-19T07:07:45.945Z,18.52
2023-02-19T07:08:17.739Z,19.40
2023-02-19T07:08:50.088Z,17.88
2023-02-19T07:09:21.904Z,15.80
2023-02-19T07:09:53.477Z,16.02
2023-02-19T07:10:25.002Z,18.65
2023-02-19T07:10:57.890Z,13.93
2023-02-19T07:11:32.332Z,19.05
2023-02-19T07:12:04.197Z,13.70
2023-02-19T07:12:35.760Z,27.63
2023-02-19T07:13:07.349Z,19.95
2023-02-19T07:13:38.913Z,21.83
2023-02-19T07:14:15.128Z,16.63
2023-02-19T07:14:46.683Z,24.38
2023-02-19T07:15:18.430Z,16.85
2023-02-19T07:15:52.096Z,18.48
2023-02-19T07:16:24.037Z,20.50
2023-02-19T07:16:55.792Z,16.42
2023-02-19T07:17:27.338Z,21.60
2023-02-19T07:17:59.354Z,19.80
2023-02-19T07:18:31.312Z,15.07
2023-02-19T07:19:03.330Z,17.90
2023-02-19T07:19:34.976Z,16.67
2023-02-19T07:20:06.653Z,15.23
2023-02-19T07:20:40.260Z,16.50
2023-02-19T07:21:13.815Z,14.73
2023-02-19T07:21:45.471Z,15.50
2023-02-19T07:22:17.078Z,16.90
2023-02-19T07:22:48.629Z,13.68
2023-02-19T07:23:20.426Z,18.77
2023-02-19T07:23:52.419Z,14.70
2023-02-19T07:24:24.018Z,10.80
2023-02-19T07:24:55.620Z,15.68
2023-02-19T07:25:27.219Z,12.30
2023-02-19T07:25:59.001Z,13.38
2023-02-19T07:26:30.544Z,10.38
2023-02-19T07:27:02.129Z,14.63
2023-02-19T07:27:33.751Z,19.35
2023-02-19T07:28:06.235Z,12.82
2023-02-19T07:28:37.965Z,17.23
2023-02-19T07:29:09.968Z,10.55
2023-02-19T07:29:41.567Z,11.48
2023-02-19T07:30:13.355Z,10.68
2023-02-19T07:30:44.935Z,21.08
2023-02-19T07:31:18.352Z,17.63
2023-02-19T07:31:50.013Z,13.55
2023-02-19T07:32:21.583Z,11.82
2023-02-19T07:32:53.163Z,11.23